Pagrindinis puslapis
METAR-TAF:

METAR-TAF

Oro uostai :

Mineralnye Vody, Rusija

platuma: 44-14N, ilguma: 043-04E, Aukštis: 314 m

Dabartinis oras

Ataskaita buvo paskelbta 22 minutes, ne 15:00 UTC
Vėjas 10 kt iš Rytų/Pietryčių
Temperatūra 18°C
Drėgmė 45%
Slėgis 1015 hPa
Matomumas 10 km arba daugiau

METAR: URMM 121500Z 11005MPS 9999 NSC 18/06 Q1015 R12/090070 NOSIG RMK QFE733/0977

Laikas: 19:22 (15:22 UTC)

Prognozė

Ataskaita buvo paskelbta 1 valandą ir 22 minutes, ne 14:00 UTC
Prognozė galioja nuo 12 metu 15 UTC su 13 metu 15 UTC
Vėjas 6 kt iš Rytų su gūsio iki 16 kt
Matomumas 10 km arba daugiau
Išsisklaidę debesys ne aukštis 3000 ft
Laikinai
nuo 12 metu 15 UTC su 12 metu 18 UTC
Vėjas 12 kt iš Rytų su gūsio iki 25 kt
Laikinai
nuo 13 metu 09 UTC su 13 metu 15 UTC
Vėjas 12 kt iš Rytų su gūsio iki 25 kt

TAF: URMM 121400Z 1215/1315 09003G08MPS 9999 SCT030 TX23/1311Z TN08/1303Z TEMPO 1215/1218 08006G13MPS TEMPO 1309/1315 08006G13MPS

Orai ataskaitas ir orų prognozės (METAR, TAF).

turimą stotys yra geltonos ir raudonos taškus žemėlapyje.

Perkelti pele per norėdami pamatyti stoties vardą.

Tada spustelėkite, norėdami matyti oro stebėjimo ir prognozės.

Norėdami pakeisti žemėlapį: spustelėkite ant žalios mygtukų su juodo kryžiaus žemyn,; žalią mygtuką su brūkšneliu, jei norite nutolinti; arba žalių rodyklių gretimoms žemėlapius.


METAR-TAF: